Time;durP1;ratioP1;P1;durP2;ratioP2;P2;SDS_P1;SDS_P2;PMS_P1;PMS_P2;Temp;Humidity;BMP_temperature;BMP_pressure;BME280_temperature;BME280_humidity;BME280_pressure;Samples;Min_cycle;Max_cycle;Signal;HPM_P1;HPM_P2
2021/05/28 00:00:36;;;;;;;7.70;4.17;;;10.30;99.90;;;;;;5066058;28;20298;-84
2021/05/28 00:03:11;;;;;;;5.10;4.13;;;10.40;99.90;;;;;;5069500;28;20241;-84
2021/05/28 00:05:39;;;;;;;8.67;4.47;;;10.40;99.90;;;;;;5065903;28;20248;-84
2021/05/28 00:08:08;;;;;;;6.73;4.30;;;10.20;99.90;;;;;;5049447;28;20232;-85
2021/05/28 00:10:36;;;;;;;8.90;4.40;;;10.30;99.90;;;;;;5049035;28;20241;-84
2021/05/28 00:13:03;;;;;;;8.77;4.40;;;10.20;99.90;;;;;;5049007;28;20303;-85
2021/05/28 00:15:33;;;;;;;6.73;4.27;;;10.00;99.90;;;;;;5050120;28;20257;-85
2021/05/28 00:18:01;;;;;;;6.70;4.23;;;10.00;99.90;;;;;;5084924;28;20243;-84
2021/05/28 00:20:29;;;;;;;6.43;3.93;;;9.90;99.90;;;;;;5061961;28;20286;-85
2021/05/28 00:22:57;;;;;;;12.67;4.57;;;9.90;99.90;;;;;;5049427;28;20871;-85
2021/05/28 00:25:26;;;;;;;7.13;3.83;;;9.80;99.90;;;;;;5060584;28;20906;-85
2021/05/28 00:27:54;;;;;;;7.40;4.37;;;9.80;99.90;;;;;;5066402;28;20702;-84
2021/05/28 00:30:23;;;;;;;9.50;4.40;;;9.80;99.90;;;;;;5053707;28;20291;-84
2021/05/28 00:32:51;;;;;;;11.07;4.10;;;9.70;99.90;;;;;;5029343;28;20240;-85
2021/05/28 00:35:19;;;;;;;6.57;4.47;;;9.60;99.90;;;;;;5029476;28;20264;-85
2021/05/28 00:37:46;;;;;;;7.00;4.27;;;9.60;99.90;;;;;;5068881;28;20240;-84
2021/05/28 00:40:16;;;;;;;9.33;3.83;;;9.60;99.90;;;;;;5076961;28;20233;-84
2021/05/28 00:42:46;;;;;;;10.33;4.47;;;9.50;99.90;;;;;;5063826;28;20925;-85
2021/05/28 00:45:15;;;;;;;12.07;4.43;;;9.60;99.90;;;;;;5064602;28;20240;-85
2021/05/28 00:47:43;;;;;;;10.87;4.50;;;9.50;99.90;;;;;;5068127;28;20645;-84
2021/05/28 00:50:13;;;;;;;6.73;4.20;;;9.60;99.90;;;;;;5075901;28;20241;-84
2021/05/28 00:52:41;;;;;;;7.37;4.07;;;9.60;99.90;;;;;;5049127;28;21050;-85
2021/05/28 00:55:10;;;;;;;8.33;4.20;;;9.60;99.90;;;;;;5039440;28;20232;-84
2021/05/28 00:57:38;;;;;;;8.17;3.87;;;9.50;99.90;;;;;;5062605;28;20247;-85
2021/05/28 01:00:08;;;;;;;9.27;3.97;;;9.40;99.90;;;;;;5049074;28;20234;-86
2021/05/28 01:02:35;;;;;;;9.10;3.87;;;9.30;99.90;;;;;;5048554;28;20244;-85
2021/05/28 01:05:04;;;;;;;6.60;4.07;;;9.40;99.90;;;;;;5049075;28;20251;-85
2021/05/28 01:07:32;;;;;;;5.77;3.90;;;9.30;99.90;;;;;;5066649;28;20239;-85
2021/05/28 01:10:03;;;;;;;6.20;3.67;;;9.40;99.90;;;;;;5068919;28;20236;-85
2021/05/28 01:12:31;;;;;;;5.67;4.00;;;9.40;99.90;;;;;;5051058;28;20235;-85
2021/05/28 01:14:59;;;;;;;6.63;3.77;;;9.40;99.90;;;;;;5043894;28;20727;-84
2021/05/28 01:17:27;;;;;;;8.57;3.90;;;9.40;99.90;;;;;;5045949;28;20240;-84
2021/05/28 01:20:00;;;;;;;7.07;3.70;;;9.30;99.90;;;;;;5049254;28;20735;-84
2021/05/28 01:22:28;;;;;;;9.07;4.50;;;9.30;99.90;;;;;;5063125;28;20236;-84
2021/05/28 01:25:00;;;;;;;7.90;4.00;;;9.20;99.90;;;;;;5068594;28;20243;-84
2021/05/28 01:27:29;;;;;;;5.30;3.67;;;9.30;99.90;;;;;;5056978;28;20298;-85
2021/05/28 01:29:57;;;;;;;8.67;3.80;;;9.30;99.90;;;;;;5048796;28;20232;-85
2021/05/28 01:32:24;;;;;;;6.03;3.73;;;9.30;99.90;;;;;;5048082;28;20240;-84
2021/05/28 01:34:52;;;;;;;7.63;3.40;;;9.20;99.90;;;;;;5050903;28;20255;-84
2021/05/28 01:37:20;;;;;;;8.03;4.00;;;9.10;99.90;;;;;;5071458;28;20647;-84
2021/05/28 01:39:52;;;;;;;7.13;4.37;;;9.10;99.90;;;;;;5051073;28;20331;-84
2021/05/28 01:42:21;;;;;;;6.50;3.87;;;9.00;99.90;;;;;;5068265;28;20772;-84
2021/05/28 01:44:53;;;;;;;6.47;4.27;;;9.00;99.90;;;;;;5072247;28;20245;-84
2021/05/28 01:47:21;;;;;;;8.37;4.27;;;9.00;99.90;;;;;;5070911;28;20246;-84
2021/05/28 01:49:49;;;;;;;7.13;4.63;;;8.90;99.90;;;;;;5051908;28;20824;-84
2021/05/28 01:52:16;;;;;;;8.77;4.30;;;8.80;99.90;;;;;;5052071;28;20246;-84
2021/05/28 01:54:44;;;;;;;9.30;4.10;;;8.80;99.90;;;;;;5051510;28;20237;-85
2021/05/28 01:57:13;;;;;;;7.33;4.70;;;8.80;99.90;;;;;;5054934;28;20229;-85
2021/05/28 01:59:43;;;;;;;7.10;4.17;;;8.80;99.90;;;;;;5067132;28;20724;-84
2021/05/28 02:02:11;;;;;;;10.47;4.40;;;8.70;99.90;;;;;;5064000;28;20233;-84
2021/05/28 02:04:43;;;;;;;8.20;4.40;;;8.80;99.90;;;;;;5031979;28;20276;-84
2021/05/28 02:07:11;;;;;;;10.57;4.57;;;8.80;99.90;;;;;;5066745;28;20762;-84
2021/05/28 02:09:40;;;;;;;7.83;5.33;;;8.90;99.90;;;;;;5051672;28;20255;-84
2021/05/28 02:12:08;;;;;;;7.57;4.47;;;8.80;99.90;;;;;;5065957;28;20266;-84
2021/05/28 02:14:37;;;;;;;11.00;4.83;;;8.80;99.90;;;;;;5055223;28;20240;-84
2021/05/28 02:17:06;;;;;;;12.67;5.37;;;8.70;99.90;;;;;;5051106;28;20655;-84
2021/05/28 02:19:34;;;;;;;9.90;5.20;;;8.70;99.90;;;;;;5051393;28;20240;-84
2021/05/28 02:22:02;;;;;;;7.23;4.53;;;8.80;99.90;;;;;;5065365;28;20243;-85
2021/05/28 02:24:30;;;;;;;8.37;4.93;;;8.70;99.90;;;;;;5054697;28;20232;-84
2021/05/28 02:26:59;;;;;;;10.73;5.17;;;8.80;99.90;;;;;;5050943;28;20236;-83
2021/05/28 02:29:26;;;;;;;11.17;5.73;;;8.70;99.90;;;;;;5039531;28;20242;-84
2021/05/28 02:31:57;;;;;;;9.30;5.50;;;8.70;99.90;;;;;;5070967;28;20237;-84
2021/05/28 02:34:25;;;;;;;10.37;5.77;;;8.80;99.90;;;;;;5071176;28;20256;-85
2021/05/28 02:36:53;;;;;;;9.80;5.27;;;8.70;99.90;;;;;;5066288;28;20235;-86
2021/05/28 02:39:20;;;;;;;11.93;5.07;;;8.60;99.90;;;;;;5050564;28;20236;-84
2021/05/28 02:41:48;;;;;;;8.70;5.50;;;8.60;99.90;;;;;;5062402;28;20260;-84
2021/05/28 02:44:16;;;;;;;10.33;5.03;;;8.60;99.90;;;;;;5070951;28;20282;-84
2021/05/28 02:46:43;;;;;;;10.97;5.43;;;8.80;99.90;;;;;;5059369;28;20244;-84
2021/05/28 02:49:13;;;;;;;10.53;5.90;;;8.80;99.90;;;;;;5050904;28;20240;-84
2021/05/28 02:51:44;;;;;;;11.03;6.00;;;8.80;99.90;;;;;;5065970;28;20240;-84
2021/05/28 02:54:12;;;;;;;7.90;5.63;;;8.80;99.90;;;;;;5051270;28;20239;-84
2021/05/28 02:56:41;;;;;;;8.53;6.30;;;8.90;99.90;;;;;;5050666;28;20903;-84
2021/05/28 02:59:09;;;;;;;13.23;5.53;;;8.80;99.90;;;;;;5065913;28;20227;-84
2021/05/28 03:02:04;;;;;;;9.90;6.07;;;8.80;99.90;;;;;;5060733;28;21089;-84
2021/05/28 03:04:33;;;;;;;8.83;5.10;;;8.80;99.90;;;;;;5070240;28;20250;-85
2021/05/28 03:07:02;;;;;;;8.07;5.23;;;8.80;99.90;;;;;;5057215;28;20724;-84
2021/05/28 03:09:30;;;;;;;11.27;6.30;;;8.90;99.90;;;;;;5050470;28;20240;-84
2021/05/28 03:11:57;;;;;;;14.80;6.43;;;8.90;99.90;;;;;;5050683;28;20246;-84
2021/05/28 03:14:28;;;;;;;11.57;5.97;;;8.80;99.90;;;;;;5050714;28;20646;-84
2021/05/28 03:16:55;;;;;;;12.27;6.00;;;8.90;99.90;;;;;;5063164;28;20228;-85
2021/05/28 03:19:27;;;;;;;9.40;5.53;;;8.90;99.90;;;;;;5064648;28;20249;-84
2021/05/28 03:24:41;;;;;;;10.63;5.13;;;9.00;99.90;;;;;;5052222;28;20235;-85
2021/05/28 03:27:11;;;;;;;9.17;5.60;;;9.00;99.90;;;;;;5063883;28;20306;-84
2021/05/28 03:29:39;;;;;;;9.83;5.93;;;9.10;99.90;;;;;;5065530;28;20585;-84
2021/05/28 03:32:07;;;;;;;8.70;5.90;;;9.10;99.90;;;;;;5081370;28;20235;-85
2021/05/28 03:34:35;;;;;;;12.27;6.23;;;9.10;99.90;;;;;;5068883;28;20715;-85
2021/05/28 03:37:04;;;;;;;11.10;5.47;;;9.10;99.90;;;;;;5056022;28;20320;-84
2021/05/28 03:39:31;;;;;;;11.90;6.70;;;9.10;99.90;;;;;;5049961;28;20754;-84
2021/05/28 03:42:00;;;;;;;11.23;6.63;;;9.10;99.90;;;;;;5049944;28;20315;-85
2021/05/28 03:44:28;;;;;;;10.97;6.57;;;9.10;99.90;;;;;;5050355;28;20232;-84
2021/05/28 03:46:56;;;;;;;11.20;6.87;;;9.10;99.90;;;;;;5049862;28;20661;-85
2021/05/28 03:49:24;;;;;;;16.90;8.57;;;9.20;99.90;;;;;;5050039;28;20280;-84
2021/05/28 03:51:51;;;;;;;15.13;8.63;;;9.20;99.90;;;;;;5049795;28;20228;-84
2021/05/28 03:54:21;;;;;;;13.47;8.77;;;9.30;99.90;;;;;;5049711;28;21126;-85
2021/05/28 03:56:49;;;;;;;13.33;8.70;;;9.30;99.90;;;;;;5060653;28;20424;-84
2021/05/28 03:59:16;;;;;;;14.43;9.83;;;9.30;99.90;;;;;;5069829;28;20240;-85
2021/05/28 04:01:44;;;;;;;15.00;9.40;;;9.30;99.90;;;;;;5084894;28;20243;-85
2021/05/28 04:04:12;;;;;;;14.73;9.97;;;9.30;99.90;;;;;;5069535;28;20285;-84
2021/05/28 04:06:40;;;;;;;17.57;9.90;;;9.30;99.90;;;;;;5059337;28;20310;-84
2021/05/28 04:09:08;;;;;;;13.80;9.50;;;9.30;99.90;;;;;;5069780;28;20564;-85
2021/05/28 04:12:08;;;;;;;14.47;10.43;;;9.40;99.90;;;;;;5069209;28;20315;-85
2021/05/28 04:14:37;;;;;;;19.00;10.27;;;9.40;99.90;;;;;;5062212;28;20241;-84
2021/05/28 04:17:05;;;;;;;15.73;10.43;;;9.50;99.90;;;;;;5055616;28;20306;-85
2021/05/28 04:19:32;;;;;;;12.87;10.93;;;9.50;99.90;;;;;;5063772;28;20232;-85
2021/05/28 04:22:00;;;;;;;16.10;12.03;;;9.50;99.90;;;;;;5077937;28;20231;-85
2021/05/28 04:24:28;;;;;;;18.43;12.20;;;9.60;99.90;;;;;;5050446;28;20243;-83
2021/05/28 04:26:55;;;;;;;19.67;12.03;;;9.70;99.90;;;;;;5061999;28;20232;-85
2021/05/28 04:29:25;;;;;;;16.33;11.73;;;9.70;99.90;;;;;;5069379;28;20238;-84
2021/05/28 04:31:53;;;;;;;15.93;12.10;;;9.70;99.90;;;;;;5054293;28;20311;-84
2021/05/28 04:34:24;;;;;;;15.13;12.60;;;9.90;99.90;;;;;;5049095;28;20634;-84
2021/05/28 04:36:58;;;;;;;19.10;13.50;;;10.00;99.90;;;;;;5061243;28;20236;-83
2021/05/28 04:39:26;;;;;;;21.17;13.77;;;10.00;99.90;;;;;;5067758;28;20236;-85
2021/05/28 04:41:55;;;;;;;17.90;14.77;;;10.00;99.90;;;;;;5069445;28;20236;-85
2021/05/28 04:44:24;;;;;;;16.67;13.60;;;9.90;99.90;;;;;;5079525;28;20767;-84
2021/05/28 04:47:03;;;;;;;16.70;14.30;;;9.90;99.90;;;;;;5076119;28;20944;-84
2021/05/28 04:49:31;;;;;;;17.80;13.97;;;9.90;99.90;;;;;;5068909;28;20308;-84
2021/05/28 04:51:59;;;;;;;15.97;14.07;;;9.90;99.90;;;;;;5071040;28;20246;-84
2021/05/28 04:54:27;;;;;;;17.23;13.93;;;9.80;99.90;;;;;;5049495;28;20235;-84
2021/05/28 04:56:55;;;;;;;18.10;15.03;;;9.90;99.90;;;;;;5049336;28;20232;-85
2021/05/28 04:59:29;;;;;;;19.17;13.80;;;9.80;99.90;;;;;;5049079;28;20231;-84
2021/05/28 05:01:57;;;;;;;16.47;14.07;;;9.80;99.90;;;;;;5049060;28;20961;-84
2021/05/28 05:04:24;;;;;;;17.03;13.07;;;9.80;99.90;;;;;;5048497;28;20245;-85
2021/05/28 05:06:53;;;;;;;15.03;12.40;;;9.70;99.90;;;;;;5047094;28;20235;-85
2021/05/28 05:09:26;;;;;;;17.63;12.37;;;9.70;99.90;;;;;;5049343;28;20232;-84
2021/05/28 05:11:56;;;;;;;16.23;12.63;;;9.60;99.90;;;;;;5062433;28;20228;-86
2021/05/28 05:14:24;;;;;;;18.33;12.57;;;9.70;99.90;;;;;;5069869;28;20231;-81
2021/05/28 05:16:52;;;;;;;18.27;13.67;;;9.70;99.90;;;;;;5058169;28;20241;-81
2021/05/28 05:19:21;;;;;;;20.47;13.47;;;9.70;99.90;;;;;;5067134;28;20236;-81
2021/05/28 05:21:52;;;;;;;20.47;14.33;;;9.60;99.90;;;;;;5062350;28;20244;-81
2021/05/28 05:24:29;;;;;;;17.70;14.23;;;9.60;99.90;;;;;;5045904;28;20247;-82
2021/05/28 05:27:00;;;;;;;19.93;14.40;;;9.70;99.90;;;;;;5062268;28;20244;-81
2021/05/28 05:29:30;;;;;;;22.00;15.93;;;9.80;99.90;;;;;;5044210;28;20266;-82
2021/05/28 05:32:01;;;;;;;22.83;14.30;;;9.80;99.90;;;;;;5055465;28;20235;-81
2021/05/28 05:34:31;;;;;;;21.97;13.57;;;9.70;99.90;;;;;;5052568;28;20288;-82
2021/05/28 05:37:01;;;;;;;16.40;13.27;;;9.70;99.90;;;;;;5051398;28;20232;-83
2021/05/28 05:39:29;;;;;;;17.43;13.37;;;9.70;99.90;;;;;;5051385;28;20315;-83
2021/05/28 05:42:00;;;;;;;16.40;12.77;;;9.80;99.90;;;;;;5054993;28;20319;-82
2021/05/28 05:44:30;;;;;;;20.03;13.87;;;9.70;99.90;;;;;;5051155;28;20579;-82
2021/05/28 05:46:58;;;;;;;19.60;13.97;;;9.70;99.90;;;;;;5051882;28;20236;-83
2021/05/28 05:49:27;;;;;;;18.90;13.27;;;9.70;99.90;;;;;;5050712;28;20251;-81
2021/05/28 05:51:54;;;;;;;21.43;14.13;;;9.80;99.90;;;;;;5051819;28;20233;-83
2021/05/28 05:54:26;;;;;;;20.50;14.83;;;9.80;99.90;;;;;;5049303;28;20240;-87
2021/05/28 05:56:56;;;;;;;20.50;14.67;;;9.80;99.90;;;;;;5055984;28;20236;-83
2021/05/28 05:59:28;;;;;;;20.70;14.57;;;9.70;99.90;;;;;;5050950;28;20638;-81
2021/05/28 06:01:56;;;;;;;24.50;14.50;;;9.80;99.90;;;;;;5050472;28;20286;-82
2021/05/28 06:04:25;;;;;;;20.23;14.33;;;9.80;99.90;;;;;;5044677;28;20236;-83
2021/05/28 06:06:54;;;;;;;22.53;13.47;;;9.80;99.90;;;;;;5049425;28;20710;-82
2021/05/28 06:09:21;;;;;;;19.03;13.63;;;9.80;99.90;;;;;;5063051;28;20233;-82
2021/05/28 06:11:49;;;;;;;20.30;13.87;;;9.80;99.90;;;;;;5051513;28;20829;-83
2021/05/28 06:14:17;;;;;;;22.80;13.93;;;9.80;99.90;;;;;;5051848;28;20232;-82
2021/05/28 06:16:45;;;;;;;20.53;14.63;;;9.80;99.90;;;;;;5054835;28;20284;-83
2021/05/28 06:19:13;;;;;;;22.53;14.63;;;9.80;99.90;;;;;;5047249;28;20282;-82
2021/05/28 06:21:41;;;;;;;24.93;15.33;;;9.80;99.90;;;;;;5047759;28;20238;-82
2021/05/28 06:24:11;;;;;;;20.23;14.57;;;9.90;99.90;;;;;;5041188;28;20310;-82
2021/05/28 06:26:39;;;;;;;17.90;13.43;;;9.90;99.90;;;;;;5041205;28;20233;-82
2021/05/28 06:29:07;;;;;;;19.23;12.70;;;9.90;99.90;;;;;;5060897;28;20234;-82
2021/05/28 06:31:36;;;;;;;19.40;12.60;;;9.90;99.90;;;;;;5049859;28;20293;-82
2021/05/28 06:34:05;;;;;;;15.63;12.20;;;10.00;99.90;;;;;;5049754;28;20626;-82
2021/05/28 06:36:34;;;;;;;17.97;12.23;;;10.00;99.90;;;;;;5045574;28;20271;-83
2021/05/28 06:39:02;;;;;;;17.17;11.93;;;9.90;99.90;;;;;;5030412;28;20233;-82
2021/05/28 06:41:31;;;;;;;20.73;12.00;;;10.00;99.90;;;;;;5044485;28;20583;-82
2021/05/28 06:43:58;;;;;;;15.83;11.40;;;10.10;99.90;;;;;;5047271;28;20243;-82
2021/05/28 06:46:26;;;;;;;18.53;11.50;;;10.10;99.90;;;;;;5057041;28;20223;-82
2021/05/28 06:48:54;;;;;;;16.53;10.97;;;10.30;99.90;;;;;;5056621;28;20246;-82
2021/05/28 06:51:22;;;;;;;16.57;10.80;;;10.40;99.90;;;;;;5049751;28;20327;-82
2021/05/28 06:53:50;;;;;;;17.63;10.80;;;10.50;99.90;;;;;;5049697;28;20242;-83
2021/05/28 06:56:18;;;;;;;20.13;11.40;;;10.70;99.90;;;;;;5049346;28;21924;-82
2021/05/28 06:58:49;;;;;;;15.50;10.03;;;10.80;99.90;;;;;;5045001;28;20294;-82
2021/05/28 07:01:19;;;;;;;17.47;9.87;;;10.90;99.90;;;;;;5045093;28;20227;-82
2021/05/28 07:03:46;;;;;;;17.87;10.23;;;11.00;99.90;;;;;;5038526;28;20646;-82
2021/05/28 07:06:14;;;;;;;16.47;10.13;;;11.00;99.90;;;;;;5041353;28;20720;-82
2021/05/28 07:08:45;;;;;;;15.87;9.90;;;10.90;99.90;;;;;;5049767;28;20320;-82
2021/05/28 07:11:15;;;;;;;18.07;10.33;;;11.00;99.90;;;;;;5048098;28;20233;-83
2021/05/28 07:13:43;;;;;;;16.57;9.73;;;11.00;99.90;;;;;;5049270;28;20241;-82
2021/05/28 07:16:11;;;;;;;15.97;9.63;;;11.00;99.90;;;;;;5050316;28;20278;-82
2021/05/28 07:18:39;;;;;;;13.20;9.03;;;11.00;99.90;;;;;;5051686;28;20593;-83
2021/05/28 07:21:09;;;;;;;17.93;10.57;;;11.00;99.90;;;;;;5036272;28;20233;-82
2021/05/28 07:23:36;;;;;;;21.10;10.53;;;11.00;99.90;;;;;;5045910;28;20312;-83
2021/05/28 07:26:04;;;;;;;15.90;10.13;;;11.00;99.90;;;;;;5035144;28;20324;-82
2021/05/28 07:28:33;;;;;;;17.67;10.07;;;11.00;99.90;;;;;;5041786;28;20244;-83
2021/05/28 07:31:01;;;;;;;19.57;9.93;;;11.00;99.90;;;;;;5051029;28;20345;-82
2021/05/28 07:33:29;;;;;;;15.97;9.80;;;11.00;99.90;;;;;;5052182;28;20252;-81
2021/05/28 07:35:59;;;;;;;15.03;9.37;;;11.00;99.90;;;;;;5049217;28;20247;-83
2021/05/28 07:38:28;;;;;;;16.77;9.23;;;11.00;99.90;;;;;;5051287;28;20279;-81
2021/05/28 07:40:56;;;;;;;15.37;9.73;;;11.00;99.90;;;;;;5050730;28;20270;-82
2021/05/28 07:43:24;;;;;;;17.83;9.50;;;11.10;99.90;;;;;;5052807;28;20742;-82
2021/05/28 07:45:52;;;;;;;14.93;9.60;;;11.30;99.90;;;;;;5053690;28;20834;-82
2021/05/28 07:48:20;;;;;;;15.30;9.57;;;11.50;99.90;;;;;;5050492;28;20279;-83
2021/05/28 07:50:50;;;;;;;16.57;9.57;;;11.70;99.90;;;;;;5049585;28;20326;-82
2021/05/28 07:53:22;;;;;;;11.90;8.63;;;11.90;99.90;;;;;;5065759;28;20245;-82
2021/05/28 07:55:51;;;;;;;15.00;9.23;;;11.90;99.90;;;;;;5051052;28;20245;-83
2021/05/28 07:58:19;;;;;;;15.37;9.20;;;11.90;99.90;;;;;;5066428;28;20251;-82
2021/05/28 08:00:47;;;;;;;17.57;9.73;;;12.00;99.90;;;;;;5048755;28;20225;-82
2021/05/28 08:03:15;;;;;;;17.70;9.07;;;12.00;99.90;;;;;;5064176;28;20241;-82
2021/05/28 08:05:43;;;;;;;15.40;8.77;;;12.10;99.90;;;;;;5047786;28;20262;-82
2021/05/28 08:08:12;;;;;;;15.10;8.73;;;12.10;99.90;;;;;;5049966;28;20320;-82
2021/05/28 08:10:40;;;;;;;14.20;8.47;;;12.10;99.90;;;;;;5047260;28;20722;-82
2021/05/28 08:13:09;;;;;;;13.50;8.57;;;12.20;99.90;;;;;;5050055;28;20250;-83
2021/05/28 08:15:38;;;;;;;17.80;9.07;;;12.30;99.90;;;;;;5057023;28;20354;-83
2021/05/28 08:18:07;;;;;;;17.17;8.70;;;12.30;99.90;;;;;;5051484;28;20310;-83
2021/05/28 08:20:39;;;;;;;13.53;8.53;;;12.30;99.90;;;;;;5046534;28;21390;-81
2021/05/28 08:23:07;;;;;;;14.20;8.23;;;12.40;99.90;;;;;;5048377;28;20226;-82
2021/05/28 08:25:36;;;;;;;12.50;8.10;;;12.90;99.90;;;;;;5048393;28;20246;-82
2021/05/28 08:28:05;;;;;;;17.67;8.20;;;13.20;99.90;;;;;;5048825;28;20233;-82
2021/05/28 08:30:33;;;;;;;14.57;8.60;;;13.20;99.90;;;;;;5047518;28;20254;-83
2021/05/28 08:33:01;;;;;;;16.43;8.07;;;13.10;99.90;;;;;;5051891;28;20247;-82
2021/05/28 08:35:29;;;;;;;14.73;8.50;;;13.10;99.90;;;;;;5053167;28;20254;-82
2021/05/28 08:37:56;;;;;;;12.33;7.43;;;13.10;99.90;;;;;;5054364;28;20745;-82
2021/05/28 08:40:29;;;;;;;11.90;7.70;;;13.20;99.90;;;;;;5049820;28;20292;-82
2021/05/28 08:42:59;;;;;;;17.60;8.10;;;13.10;99.90;;;;;;5055281;28;20257;-83
2021/05/28 08:45:33;;;;;;;13.13;7.80;;;12.90;99.90;;;;;;5055693;28;20238;-83
2021/05/28 08:48:01;;;;;;;14.30;7.67;;;12.80;99.90;;;;;;5054939;28;20250;-83
2021/05/28 08:50:29;;;;;;;14.03;8.07;;;12.80;99.90;;;;;;5056389;28;20788;-82
2021/05/28 08:53:00;;;;;;;17.50;8.17;;;12.70;99.90;;;;;;5057113;28;20688;-82
2021/05/28 08:55:28;;;;;;;14.63;7.90;;;12.70;99.90;;;;;;5053083;28;20265;-82
2021/05/28 08:57:56;;;;;;;15.20;8.60;;;12.70;99.90;;;;;;5055324;28;20268;-82
2021/05/28 09:00:26;;;;;;;15.00;7.63;;;12.90;99.90;;;;;;5057559;28;20253;-82
2021/05/28 09:02:55;;;;;;;18.17;8.60;;;12.90;99.90;;;;;;5059050;28;20237;-85
2021/05/28 09:05:25;;;;;;;13.63;7.77;;;12.90;99.90;;;;;;5060680;28;20226;-82
2021/05/28 09:07:57;;;;;;;14.97;7.63;;;13.00;99.90;;;;;;5062146;28;20317;-82
2021/05/28 09:10:33;;;;;;;16.20;8.77;;;12.90;99.90;;;;;;5075201;28;20241;-82
2021/05/28 09:13:13;;;;;;;17.00;8.43;;;12.90;99.90;;;;;;5057011;28;20257;-85
2021/05/28 09:16:04;;;;;;;10.43;7.63;;;12.90;99.90;;;;;;5054273;28;20234;-85
2021/05/28 09:18:45;;;;;;;14.90;8.70;;;13.00;99.90;;;;;;5049908;28;20296;-82
2021/05/28 09:21:15;;;;;;;16.97;8.03;;;13.00;99.90;;;;;;5064515;28;20238;-82
2021/05/28 09:23:43;;;;;;;18.33;8.23;;;13.10;99.90;;;;;;5053627;28;20596;-83
2021/05/28 09:26:11;;;;;;;18.73;8.40;;;13.10;99.90;;;;;;5054437;28;20235;-83
2021/05/28 09:28:42;;;;;;;12.83;7.90;;;13.10;99.90;;;;;;5054175;28;20725;-88
2021/05/28 09:31:14;;;;;;;18.03;8.97;;;12.90;99.90;;;;;;5062830;28;20304;-83
2021/05/28 09:33:45;;;;;;;15.77;8.00;;;12.90;99.90;;;;;;5061050;28;20237;-83
2021/05/28 09:36:18;;;;;;;13.40;7.90;;;12.80;99.90;;;;;;5074264;28;20238;-83
2021/05/28 09:38:58;;;;;;;15.63;6.90;;;12.90;99.90;;;;;;5059326;28;20701;-82
2021/05/28 09:41:43;;;;;;;12.63;6.70;;;13.10;99.90;;;;;;5056586;28;20242;-83
2021/05/28 09:44:19;;;;;;;14.07;6.70;;;13.30;99.90;;;;;;5047875;28;20744;-83
2021/05/28 09:47:03;;;;;;;10.90;6.43;;;13.50;99.90;;;;;;5049849;28;20283;-91
2021/05/28 09:49:36;;;;;;;12.47;6.70;;;14.10;99.90;;;;;;5047908;28;20234;-90
2021/05/28 09:52:13;;;;;;;14.07;6.53;;;14.30;99.90;;;;;;5050974;28;20235;-90
2021/05/28 09:54:55;;;;;;;15.13;7.30;;;14.20;99.90;;;;;;5062526;28;20255;-88
2021/05/28 09:57:31;;;;;;;17.03;7.40;;;14.10;99.90;;;;;;5051183;28;20242;-82
2021/05/28 10:00:00;;;;;;;16.13;6.73;;;13.70;99.90;;;;;;5049702;28;20247;-82
2021/05/28 10:02:32;;;;;;;10.27;6.43;;;13.60;99.90;;;;;;5057491;28;20284;-83
2021/05/28 10:05:01;;;;;;;14.00;7.13;;;13.50;99.90;;;;;;5052286;28;20289;-83
2021/05/28 10:07:31;;;;;;;13.13;7.27;;;13.40;99.90;;;;;;5046293;28;20242;-84
2021/05/28 10:10:25;;;;;;;13.70;6.67;;;13.30;99.90;;;;;;5049330;28;20243;-85
2021/05/28 10:12:53;;;;;;;14.47;7.90;;;13.30;99.90;;;;;;5056229;28;20293;-83
2021/05/28 10:15:23;;;;;;;12.63;7.07;;;13.30;99.90;;;;;;5042927;28;20245;-85
2021/05/28 10:17:52;;;;;;;13.17;6.70;;;13.50;99.90;;;;;;5056532;28;20239;-84
2021/05/28 10:20:22;;;;;;;13.43;6.83;;;13.50;99.90;;;;;;5051630;28;20242;-83
2021/05/28 10:22:50;;;;;;;11.90;7.03;;;13.70;99.90;;;;;;5066611;28;20325;-85
2021/05/28 10:25:24;;;;;;;10.80;6.53;;;13.80;99.90;;;;;;5045344;28;20242;-83
2021/05/28 10:27:54;;;;;;;13.20;6.80;;;13.80;99.90;;;;;;5063190;28;20246;-84
2021/05/28 10:30:26;;;;;;;13.57;6.40;;;14.00;99.90;;;;;;5065161;28;20239;-84
2021/05/28 10:33:16;;;;;;;10.00;5.73;;;14.10;99.90;;;;;;5069900;28;20249;-83
2021/05/28 10:35:49;;;;;;;10.93;5.73;;;14.20;99.90;;;;;;5049719;28;20238;-83
2021/05/28 10:38:43;;;;;;;11.83;5.97;;;14.30;99.90;;;;;;5050499;28;20789;-83
2021/05/28 10:41:34;;;;;;;13.80;6.50;;;14.20;99.90;;;;;;5038989;28;20334;-83
2021/05/28 10:44:16;;;;;;;13.03;5.87;;;14.00;99.90;;;;;;5065516;28;20249;-82
2021/05/28 10:47:19;;;;;;;14.10;6.50;;;13.80;99.90;;;;;;5053459;28;20223;-83
2021/05/28 10:49:56;;;;;;;13.13;6.77;;;13.60;99.90;;;;;;5047615;28;20238;-83
2021/05/28 10:52:30;;;;;;;14.03;6.77;;;13.50;99.90;;;;;;5055650;28;20242;-82
2021/05/28 10:55:02;;;;;;;14.53;6.50;;;13.50;99.90;;;;;;5055445;28;20246;-83
2021/05/28 10:57:35;;;;;;;11.83;6.73;;;13.50;99.90;;;;;;5069619;28;20234;-83
2021/05/28 11:00:21;;;;;;;11.30;6.43;;;13.40;99.90;;;;;;5060335;28;20683;-83
2021/05/28 11:03:00;;;;;;;13.97;6.87;;;13.40;99.90;;;;;;5057331;28;20246;-82
2021/05/28 11:05:50;;;;;;;11.27;7.40;;;13.60;99.90;;;;;;5060963;28;20314;-82
2021/05/28 11:08:45;;;;;;;12.57;6.90;;;13.70;99.90;;;;;;5066419;28;20736;-83
2021/05/28 11:11:47;;;;;;;15.03;7.30;;;13.90;99.90;;;;;;5056617;28;20770;-83
2021/05/28 11:14:18;;;;;;;13.07;7.30;;;14.10;99.90;;;;;;5053010;28;20239;-83
2021/05/28 11:17:17;;;;;;;13.43;6.97;;;14.40;99.90;;;;;;5049055;28;20245;-83
2021/05/28 11:19:49;;;;;;;13.97;6.73;;;14.50;99.90;;;;;;5047835;28;20235;-83
2021/05/28 11:22:37;;;;;;;11.10;6.10;;;14.50;99.90;;;;;;5045949;28;20239;-83
2021/05/28 11:25:17;;;;;;;11.93;7.00;;;15.00;99.90;;;;;;5043490;28;20240;-83
2021/05/28 11:28:03;;;;;;;11.83;6.03;;;15.50;99.90;;;;;;5044061;28;20242;-83
2021/05/28 11:30:43;;;;;;;10.73;5.87;;;16.00;99.90;;;;;;5051056;28;20243;-84
2021/05/28 11:33:45;;;;;;;7.77;4.63;;;16.90;99.90;;;;;;5049425;28;20890;-83
2021/05/28 11:36:45;;;;;;;9.83;5.33;;;16.70;99.90;;;;;;5064401;28;20234;-83
2021/05/28 11:39:25;;;;;;;9.83;4.77;;;16.60;99.90;;;;;;5055300;28;20231;-83
2021/05/28 11:42:00;;;;;;;10.97;5.00;;;16.80;99.90;;;;;;5057119;28;20235;-83
2021/05/28 11:44:29;;;;;;;9.43;4.70;;;16.90;99.90;;;;;;5075372;28;20226;-83
2021/05/28 11:46:59;;;;;;;7.37;4.70;;;17.50;99.90;;;;;;5052436;28;20767;-83
2021/05/28 11:49:27;;;;;;;8.00;4.33;;;17.90;99.90;;;;;;5047177;28;20797;-83
2021/05/28 11:52:05;;;;;;;8.93;4.40;;;18.80;99.90;;;;;;5056393;28;20259;-83
2021/05/28 11:54:36;;;;;;;8.60;4.67;;;19.20;99.90;;;;;;5051673;28;20235;-83
2021/05/28 11:57:06;;;;;;;8.90;4.67;;;19.70;99.90;;;;;;5043385;28;20292;-83
2021/05/28 11:59:49;;;;;;;8.23;4.20;;;19.60;99.90;;;;;;5065299;28;20240;-83
2021/05/28 12:02:38;;;;;;;9.90;4.30;;;19.70;99.90;;;;;;5049465;28;20756;-84
2021/05/28 12:05:19;;;;;;;9.10;3.83;;;19.60;99.90;;;;;;5047663;28;20248;-83
2021/05/28 12:07:57;;;;;;;5.23;3.83;;;19.30;99.90;;;;;;5048556;28;20705;-83
2021/05/28 12:10:28;;;;;;;10.33;4.20;;;18.60;99.90;;;;;;5045396;28;20257;-83
2021/05/28 12:12:58;;;;;;;10.87;4.10;;;17.90;99.90;;;;;;5048247;28;20239;-83
2021/05/28 12:15:31;;;;;;;7.37;3.97;;;17.50;99.90;;;;;;5034860;28;20703;-84
2021/05/28 12:18:00;;;;;;;8.03;3.80;;;17.30;99.90;;;;;;5068920;28;20245;-85
2021/05/28 12:20:31;;;;;;;8.20;4.60;;;17.40;99.90;;;;;;5034688;28;20242;-84
2021/05/28 12:23:10;;;;;;;9.63;4.13;;;17.20;99.90;;;;;;5067668;28;20262;-84
2021/05/28 12:25:43;;;;;;;8.73;4.30;;;17.10;99.90;;;;;;5038693;28;20236;-84
2021/05/28 12:28:17;;;;;;;8.50;3.90;;;17.10;99.90;;;;;;5044516;28;20244;-84
2021/05/28 12:30:50;;;;;;;11.07;4.80;;;17.40;99.90;;;;;;5068980;28;20311;-84
2021/05/28 12:33:24;;;;;;;9.47;4.27;;;17.20;99.90;;;;;;5046426;28;20243;-84
2021/05/28 12:35:55;;;;;;;10.60;4.30;;;17.10;99.90;;;;;;5049045;28;20231;-83
2021/05/28 12:38:25;;;;;;;8.63;4.00;;;17.10;99.90;;;;;;5063155;28;20231;-84
2021/05/28 12:40:53;;;;;;;13.10;4.80;;;17.40;99.90;;;;;;5050432;28;20314;-84
2021/05/28 12:43:24;;;;;;;9.53;5.07;;;17.70;99.90;;;;;;5047899;28;20228;-84
2021/05/28 12:45:53;;;;;;;8.53;4.00;;;17.60;99.90;;;;;;5042933;28;20239;-84
2021/05/28 12:48:22;;;;;;;10.17;4.40;;;17.60;99.90;;;;;;5048016;28;20235;-84
2021/05/28 12:50:52;;;;;;;10.13;4.37;;;17.40;99.90;;;;;;5051375;28;20311;-85
2021/05/28 12:53:22;;;;;;;8.67;4.47;;;17.20;99.90;;;;;;5048255;28;20269;-84
2021/05/28 12:55:54;;;;;;;9.47;4.37;;;17.00;99.90;;;;;;5056145;28;20270;-91
2021/05/28 12:58:27;;;;;;;7.63;3.63;;;16.80;99.90;;;;;;5048763;28;20239;-85
2021/05/28 13:01:01;;;;;;;9.50;4.03;;;16.60;99.90;;;;;;5053010;28;20683;-85
2021/05/28 13:03:38;;;;;;;8.77;4.70;;;16.60;99.90;;;;;;5048920;28;20238;-85
2021/05/28 13:06:42;;;;;;;10.87;5.00;;;16.40;99.90;;;;;;5048836;28;20239;-85